sensor_id;sensor_type;location;lat;lon;timestamp;temperature;humidity
46159;DHT22;31888;44.512;26.104;2023-04-24T00:01:51;12.00;99.90
46159;DHT22;31888;44.512;26.104;2023-04-24T00:04:17;12.00;99.90
46159;DHT22;31888;44.512;26.104;2023-04-24T00:06:43;12.00;99.90
46159;DHT22;31888;44.512;26.104;2023-04-24T00:09:07;12.00;99.90
46159;DHT22;31888;44.512;26.104;2023-04-24T00:11:33;12.00;99.90
46159;DHT22;31888;44.512;26.104;2023-04-24T00:13:57;12.00;99.90
46159;DHT22;31888;44.512;26.104;2023-04-24T00:16:22;12.00;99.90
46159;DHT22;31888;44.512;26.104;2023-04-24T00:18:47;12.00;99.90
46159;DHT22;31888;44.512;26.104;2023-04-24T00:21:13;12.00;99.90
46159;DHT22;31888;44.512;26.104;2023-04-24T00:23:39;12.00;99.90
46159;DHT22;31888;44.512;26.104;2023-04-24T00:26:04;11.80;99.90
46159;DHT22;31888;44.512;26.104;2023-04-24T00:28:28;11.60;99.90
46159;DHT22;31888;44.512;26.104;2023-04-24T00:30:53;11.40;99.90
46159;DHT22;31888;44.512;26.104;2023-04-24T00:33:18;11.30;99.90
46159;DHT22;31888;44.512;26.104;2023-04-24T00:35:43;10.90;99.90
46159;DHT22;31888;44.512;26.104;2023-04-24T00:38:09;10.90;99.90
46159;DHT22;31888;44.512;26.104;2023-04-24T00:40:33;10.90;99.90
46159;DHT22;31888;44.512;26.104;2023-04-24T00:42:59;10.70;99.90
46159;DHT22;31888;44.512;26.104;2023-04-24T00:45:24;10.70;99.90
46159;DHT22;31888;44.512;26.104;2023-04-24T00:47:48;10.70;99.90
46159;DHT22;31888;44.512;26.104;2023-04-24T00:50:14;10.70;99.90
46159;DHT22;31888;44.512;26.104;2023-04-24T00:52:40;10.70;99.90
46159;DHT22;31888;44.512;26.104;2023-04-24T00:55:08;10.70;99.90
46159;DHT22;31888;44.512;26.104;2023-04-24T00:57:33;10.70;99.90
46159;DHT22;31888;44.512;26.104;2023-04-24T00:59:58;10.60;99.90
46159;DHT22;31888;44.512;26.104;2023-04-24T01:02:27;10.50;99.90
46159;DHT22;31888;44.512;26.104;2023-04-24T01:04:53;10.40;99.90
46159;DHT22;31888;44.512;26.104;2023-04-24T01:07:19;10.40;99.90
46159;DHT22;31888;44.512;26.104;2023-04-24T01:09:47;10.40;99.90
46159;DHT22;31888;44.512;26.104;2023-04-24T01:12:18;10.40;99.90
46159;DHT22;31888;44.512;26.104;2023-04-24T01:14:43;10.50;99.90
46159;DHT22;31888;44.512;26.104;2023-04-24T01:17:08;10.60;99.90
46159;DHT22;31888;44.512;26.104;2023-04-24T01:19:32;10.60;99.90
46159;DHT22;31888;44.512;26.104;2023-04-24T01:22:02;10.70;99.90
46159;DHT22;31888;44.512;26.104;2023-04-24T01:24:29;10.70;99.90
46159;DHT22;31888;44.512;26.104;2023-04-24T01:26:53;10.80;99.90
46159;DHT22;31888;44.512;26.104;2023-04-24T01:29:18;10.90;99.90
46159;DHT22;31888;44.512;26.104;2023-04-24T01:31:43;10.80;99.90
46159;DHT22;31888;44.512;26.104;2023-04-24T01:34:08;10.70;99.90
46159;DHT22;31888;44.512;26.104;2023-04-24T01:36:33;10.60;99.90
46159;DHT22;31888;44.512;26.104;2023-04-24T01:38:59;10.50;99.90
46159;DHT22;31888;44.512;26.104;2023-04-24T01:41:25;10.50;99.90
46159;DHT22;31888;44.512;26.104;2023-04-24T01:43:50;10.50;99.90
46159;DHT22;31888;44.512;26.104;2023-04-24T01:46:16;10.30;99.90
46159;DHT22;31888;44.512;26.104;2023-04-24T01:48:41;10.20;99.90
46159;DHT22;31888;44.512;26.104;2023-04-24T01:51:06;10.10;99.90
46159;DHT22;31888;44.512;26.104;2023-04-24T01:53:32;10.10;99.90
46159;DHT22;31888;44.512;26.104;2023-04-24T01:55:58;10.00;99.90
46159;DHT22;31888;44.512;26.104;2023-04-24T01:58:24;10.00;99.90
46159;DHT22;31888;44.512;26.104;2023-04-24T02:00:49;9.90;99.90
46159;DHT22;31888;44.512;26.104;2023-04-24T02:03:14;9.80;99.90
46159;DHT22;31888;44.512;26.104;2023-04-24T02:05:39;9.70;99.90
46159;DHT22;31888;44.512;26.104;2023-04-24T02:08:04;9.70;99.90
46159;DHT22;31888;44.512;26.104;2023-04-24T02:10:29;9.70;99.90
46159;DHT22;31888;44.512;26.104;2023-04-24T02:12:55;9.70;99.90
46159;DHT22;31888;44.512;26.104;2023-04-24T02:15:22;9.70;99.90
46159;DHT22;31888;44.512;26.104;2023-04-24T02:17:47;9.70;99.90
46159;DHT22;31888;44.512;26.104;2023-04-24T02:20:11;9.80;99.90
46159;DHT22;31888;44.512;26.104;2023-04-24T02:22:36;9.70;99.90
46159;DHT22;31888;44.512;26.104;2023-04-24T02:25:01;9.50;99.90
46159;DHT22;31888;44.512;26.104;2023-04-24T02:27:29;9.50;99.90
46159;DHT22;31888;44.512;26.104;2023-04-24T02:29:54;9.40;99.90
46159;DHT22;31888;44.512;26.104;2023-04-24T02:32:20;9.40;99.90
46159;DHT22;31888;44.512;26.104;2023-04-24T02:34:45;9.40;99.90
46159;DHT22;31888;44.512;26.104;2023-04-24T02:37:11;9.40;99.90
46159;DHT22;31888;44.512;26.104;2023-04-24T02:39:36;9.40;99.90
46159;DHT22;31888;44.512;26.104;2023-04-24T02:42:01;9.40;99.90
46159;DHT22;31888;44.512;26.104;2023-04-24T02:44:26;9.40;99.90
46159;DHT22;31888;44.512;26.104;2023-04-24T02:46:51;9.40;99.90
46159;DHT22;31888;44.512;26.104;2023-04-24T02:49:17;9.30;99.90
46159;DHT22;31888;44.512;26.104;2023-04-24T02:51:42;9.30;99.90
46159;DHT22;31888;44.512;26.104;2023-04-24T02:54:07;9.20;99.90
46159;DHT22;31888;44.512;26.104;2023-04-24T02:56:33;9.20;99.90
46159;DHT22;31888;44.512;26.104;2023-04-24T02:58:59;9.30;99.90
46159;DHT22;31888;44.512;26.104;2023-04-24T03:01:25;9.30;99.90
46159;DHT22;31888;44.512;26.104;2023-04-24T03:03:49;9.40;99.90
46159;DHT22;31888;44.512;26.104;2023-04-24T03:06:17;9.30;99.90
46159;DHT22;31888;44.512;26.104;2023-04-24T03:08:41;9.20;99.90
46159;DHT22;31888;44.512;26.104;2023-04-24T03:11:06;9.20;99.90
46159;DHT22;31888;44.512;26.104;2023-04-24T03:13:32;9.30;99.90
46159;DHT22;31888;44.512;26.104;2023-04-24T03:15:57;9.30;99.90
46159;DHT22;31888;44.512;26.104;2023-04-24T03:18:23;9.20;99.90
46159;DHT22;31888;44.512;26.104;2023-04-24T03:20:50;9.10;99.90
46159;DHT22;31888;44.512;26.104;2023-04-24T03:23:19;9.00;99.90
46159;DHT22;31888;44.512;26.104;2023-04-24T03:25:44;9.00;99.90
46159;DHT22;31888;44.512;26.104;2023-04-24T03:28:09;9.00;99.90
46159;DHT22;31888;44.512;26.104;2023-04-24T03:30:40;9.10;99.90
46159;DHT22;31888;44.512;26.104;2023-04-24T03:33:06;9.20;99.90
46159;DHT22;31888;44.512;26.104;2023-04-24T03:35:34;9.30;99.90
46159;DHT22;31888;44.512;26.104;2023-04-24T03:38:04;9.30;99.90
46159;DHT22;31888;44.512;26.104;2023-04-24T03:40:40;9.20;99.90
46159;DHT22;31888;44.512;26.104;2023-04-24T03:43:22;9.30;99.90
46159;DHT22;31888;44.512;26.104;2023-04-24T03:45:48;9.40;99.90
46159;DHT22;31888;44.512;26.104;2023-04-24T03:48:15;9.70;99.90
46159;DHT22;31888;44.512;26.104;2023-04-24T03:50:40;9.90;99.90
46159;DHT22;31888;44.512;26.104;2023-04-24T03:53:07;10.00;99.90
46159;DHT22;31888;44.512;26.104;2023-04-24T03:55:35;10.10;99.90
46159;DHT22;31888;44.512;26.104;2023-04-24T03:58:02;10.20;99.90
46159;DHT22;31888;44.512;26.104;2023-04-24T04:00:27;10.30;99.90
46159;DHT22;31888;44.512;26.104;2023-04-24T04:03:12;10.40;99.90
46159;DHT22;31888;44.512;26.104;2023-04-24T04:05:38;10.60;99.90
46159;DHT22;31888;44.512;26.104;2023-04-24T04:08:03;10.70;99.90
46159;DHT22;31888;44.512;26.104;2023-04-24T04:10:28;10.80;99.90
46159;DHT22;31888;44.512;26.104;2023-04-24T04:12:53;10.90;99.90
46159;DHT22;31888;44.512;26.104;2023-04-24T04:15:20;10.90;99.90
46159;DHT22;31888;44.512;26.104;2023-04-24T04:17:46;10.90;99.90
46159;DHT22;31888;44.512;26.104;2023-04-24T04:20:11;10.80;99.90
46159;DHT22;31888;44.512;26.104;2023-04-24T04:22:37;10.70;99.90
46159;DHT22;31888;44.512;26.104;2023-04-24T04:25:07;10.70;99.90
46159;DHT22;31888;44.512;26.104;2023-04-24T04:27:40;10.60;99.90
46159;DHT22;31888;44.512;26.104;2023-04-24T04:30:08;10.60;99.90
46159;DHT22;31888;44.512;26.104;2023-04-24T04:32:49;10.50;99.90
46159;DHT22;31888;44.512;26.104;2023-04-24T04:35:14;10.50;99.90
46159;DHT22;31888;44.512;26.104;2023-04-24T04:37:39;10.50;99.90
46159;DHT22;31888;44.512;26.104;2023-04-24T04:40:12;10.40;99.90
46159;DHT22;31888;44.512;26.104;2023-04-24T04:42:45;10.40;99.90
46159;DHT22;31888;44.512;26.104;2023-04-24T04:45:11;10.40;99.90
46159;DHT22;31888;44.512;26.104;2023-04-24T04:47:55;10.50;99.90
46159;DHT22;31888;44.512;26.104;2023-04-24T04:50:20;10.50;99.90
46159;DHT22;31888;44.512;26.104;2023-04-24T04:52:49;10.50;99.90
46159;DHT22;31888;44.512;26.104;2023-04-24T04:55:21;10.50;99.90
46159;DHT22;31888;44.512;26.104;2023-04-24T04:58:13;10.50;99.90
46159;DHT22;31888;44.512;26.104;2023-04-24T05:00:39;10.50;99.90
46159;DHT22;31888;44.512;26.104;2023-04-24T05:03:14;10.50;99.90
46159;DHT22;31888;44.512;26.104;2023-04-24T05:05:50;10.50;99.90
46159;DHT22;31888;44.512;26.104;2023-04-24T05:08:15;10.60;99.90
46159;DHT22;31888;44.512;26.104;2023-04-24T05:10:50;10.70;99.90
46159;DHT22;31888;44.512;26.104;2023-04-24T05:13:14;10.70;99.90
46159;DHT22;31888;44.512;26.104;2023-04-24T05:15:45;10.70;99.90
46159;DHT22;31888;44.512;26.104;2023-04-24T05:18:14;10.70;99.90
46159;DHT22;31888;44.512;26.104;2023-04-24T05:20:39;10.90;99.90
46159;DHT22;31888;44.512;26.104;2023-04-24T05:23:04;10.90;99.90
46159;DHT22;31888;44.512;26.104;2023-04-24T05:25:29;10.90;99.90
46159;DHT22;31888;44.512;26.104;2023-04-24T05:28:04;10.90;99.90
46159;DHT22;31888;44.512;26.104;2023-04-24T05:30:29;10.80;99.90
46159;DHT22;31888;44.512;26.104;2023-04-24T05:32:56;10.80;99.90
46159;DHT22;31888;44.512;26.104;2023-04-24T05:35:27;11.00;99.90
46159;DHT22;31888;44.512;26.104;2023-04-24T05:37:51;11.30;99.90
46159;DHT22;31888;44.512;26.104;2023-04-24T05:40:17;11.90;99.90
46159;DHT22;31888;44.512;26.104;2023-04-24T05:42:42;12.50;99.90
46159;DHT22;31888;44.512;26.104;2023-04-24T05:45:07;12.80;99.90
46159;DHT22;31888;44.512;26.104;2023-04-24T05:47:32;13.10;99.90
46159;DHT22;31888;44.512;26.104;2023-04-24T05:49:57;13.00;99.90
46159;DHT22;31888;44.512;26.104;2023-04-24T05:52:23;13.20;99.90
46159;DHT22;31888;44.512;26.104;2023-04-24T05:54:50;13.00;99.90
46159;DHT22;31888;44.512;26.104;2023-04-24T05:57:19;13.00;99.90
46159;DHT22;31888;44.512;26.104;2023-04-24T05:59:55;13.10;99.90
46159;DHT22;31888;44.512;26.104;2023-04-24T06:02:21;13.30;99.90
46159;DHT22;31888;44.512;26.104;2023-04-24T06:04:46;13.70;99.90
46159;DHT22;31888;44.512;26.104;2023-04-24T06:07:13;13.80;99.90
46159;DHT22;31888;44.512;26.104;2023-04-24T06:09:40;13.80;99.90
46159;DHT22;31888;44.512;26.104;2023-04-24T06:12:06;13.80;99.90
46159;DHT22;31888;44.512;26.104;2023-04-24T06:14:52;13.90;99.90
46159;DHT22;31888;44.512;26.104;2023-04-24T06:17:49;14.10;99.90
46159;DHT22;31888;44.512;26.104;2023-04-24T06:20:16;14.70;99.90
46159;DHT22;31888;44.512;26.104;2023-04-24T06:22:42;14.90;99.90
46159;DHT22;31888;44.512;26.104;2023-04-24T06:25:09;15.10;99.50
46159;DHT22;31888;44.512;26.104;2023-04-24T06:27:34;15.50;97.30
46159;DHT22;31888;44.512;26.104;2023-04-24T06:29:59;15.60;97.30
46159;DHT22;31888;44.512;26.104;2023-04-24T06:32:27;15.60;97.40
46159;DHT22;31888;44.512;26.104;2023-04-24T06:34:52;15.80;96.90
46159;DHT22;31888;44.512;26.104;2023-04-24T06:37:17;16.30;96.00
46159;DHT22;31888;44.512;26.104;2023-04-24T06:39:43;16.50;95.30
46159;DHT22;31888;44.512;26.104;2023-04-24T06:42:09;16.10;95.30
46159;DHT22;31888;44.512;26.104;2023-04-24T06:44:33;16.00;94.90
46159;DHT22;31888;44.512;26.104;2023-04-24T06:47:04;15.40;96.00
46159;DHT22;31888;44.512;26.104;2023-04-24T06:49:29;15.20;96.20
46159;DHT22;31888;44.512;26.104;2023-04-24T06:51:54;15.10;96.80
46159;DHT22;31888;44.512;26.104;2023-04-24T06:54:21;14.90;97.30
46159;DHT22;31888;44.512;26.104;2023-04-24T06:56:46;15.20;98.90
46159;DHT22;31888;44.512;26.104;2023-04-24T06:59:13;15.50;97.90
46159;DHT22;31888;44.512;26.104;2023-04-24T07:01:38;15.60;97.50
46159;DHT22;31888;44.512;26.104;2023-04-24T07:04:02;15.40;97.20
46159;DHT22;31888;44.512;26.104;2023-04-24T07:06:28;15.70;96.70
46159;DHT22;31888;44.512;26.104;2023-04-24T07:08:54;15.80;95.90
46159;DHT22;31888;44.512;26.104;2023-04-24T07:11:19;15.80;95.70
46159;DHT22;31888;44.512;26.104;2023-04-24T07:13:45;15.60;95.50
46159;DHT22;31888;44.512;26.104;2023-04-24T07:16:11;15.50;95.80
46159;DHT22;31888;44.512;26.104;2023-04-24T07:18:36;15.70;95.40
46159;DHT22;31888;44.512;26.104;2023-04-24T07:21:00;16.00;95.30
46159;DHT22;31888;44.512;26.104;2023-04-24T07:23:25;16.20;94.80
46159;DHT22;31888;44.512;26.104;2023-04-24T07:25:50;16.50;94.80
46159;DHT22;31888;44.512;26.104;2023-04-24T07:28:14;16.40;94.40
46159;DHT22;31888;44.512;26.104;2023-04-24T07:30:40;16.60;94.40
46159;DHT22;31888;44.512;26.104;2023-04-24T07:33:07;16.80;93.60
46159;DHT22;31888;44.512;26.104;2023-04-24T07:35:31;17.40;93.20
46159;DHT22;31888;44.512;26.104;2023-04-24T07:37:57;18.20;92.80
46159;DHT22;31888;44.512;26.104;2023-04-24T07:40:22;18.70;92.20
46159;DHT22;31888;44.512;26.104;2023-04-24T07:42:47;19.20;91.00
46159;DHT22;31888;44.512;26.104;2023-04-24T07:45:13;19.40;90.00
46159;DHT22;31888;44.512;26.104;2023-04-24T07:47:38;19.50;90.10
46159;DHT22;31888;44.512;26.104;2023-04-24T07:50:06;19.70;88.60
46159;DHT22;31888;44.512;26.104;2023-04-24T07:52:31;20.20;88.20
46159;DHT22;31888;44.512;26.104;2023-04-24T07:54:55;20.50;86.00
46159;DHT22;31888;44.512;26.104;2023-04-24T07:57:21;20.80;84.40
46159;DHT22;31888;44.512;26.104;2023-04-24T07:59:46;21.30;82.20
46159;DHT22;31888;44.512;26.104;2023-04-24T08:02:13;21.40;81.20
46159;DHT22;31888;44.512;26.104;2023-04-24T08:04:38;21.60;80.40
46159;DHT22;31888;44.512;26.104;2023-04-24T08:07:09;21.80;78.20
46159;DHT22;31888;44.512;26.104;2023-04-24T08:09:36;21.80;79.30
46159;DHT22;31888;44.512;26.104;2023-04-24T08:12:01;22.10;77.80
46159;DHT22;31888;44.512;26.104;2023-04-24T08:14:26;21.80;77.80
46159;DHT22;31888;44.512;26.104;2023-04-24T08:16:53;21.40;78.30
46159;DHT22;31888;44.512;26.104;2023-04-24T08:19:18;21.60;79.50
46159;DHT22;31888;44.512;26.104;2023-04-24T08:21:44;22.00;80.40
46159;DHT22;31888;44.512;26.104;2023-04-24T08:24:10;22.00;76.70
46159;DHT22;31888;44.512;26.104;2023-04-24T08:26:35;22.20;78.20
46159;DHT22;31888;44.512;26.104;2023-04-24T08:29:00;22.10;77.00
46159;DHT22;31888;44.512;26.104;2023-04-24T08:31:25;21.90;76.40
46159;DHT22;31888;44.512;26.104;2023-04-24T08:33:50;21.80;75.80
46159;DHT22;31888;44.512;26.104;2023-04-24T08:36:15;21.20;78.00
46159;DHT22;31888;44.512;26.104;2023-04-24T08:38:40;20.80;79.00
46159;DHT22;31888;44.512;26.104;2023-04-24T08:41:09;20.80;80.80
46159;DHT22;31888;44.512;26.104;2023-04-24T08:43:37;20.80;79.20
46159;DHT22;31888;44.512;26.104;2023-04-24T08:46:06;20.80;78.90
46159;DHT22;31888;44.512;26.104;2023-04-24T08:48:34;20.60;80.00
46159;DHT22;31888;44.512;26.104;2023-04-24T08:50:59;20.80;79.70
46159;DHT22;31888;44.512;26.104;2023-04-24T08:53:26;21.00;79.10
46159;DHT22;31888;44.512;26.104;2023-04-24T08:55:51;21.10;79.40
46159;DHT22;31888;44.512;26.104;2023-04-24T08:58:20;20.10;81.80
46159;DHT22;31888;44.512;26.104;2023-04-24T09:00:45;20.10;81.70
46159;DHT22;31888;44.512;26.104;2023-04-24T09:03:11;20.50;81.60
46159;DHT22;31888;44.512;26.104;2023-04-24T09:05:38;20.60;80.30
46159;DHT22;31888;44.512;26.104;2023-04-24T09:08:04;20.30;79.40
46159;DHT22;31888;44.512;26.104;2023-04-24T09:10:30;20.40;79.20
46159;DHT22;31888;44.512;26.104;2023-04-24T09:12:56;20.60;80.70
46159;DHT22;31888;44.512;26.104;2023-04-24T09:15:26;20.80;79.10
46159;DHT22;31888;44.512;26.104;2023-04-24T09:17:51;20.50;78.80
46159;DHT22;31888;44.512;26.104;2023-04-24T09:20:16;20.80;78.50
46159;DHT22;31888;44.512;26.104;2023-04-24T09:22:42;20.90;79.10
46159;DHT22;31888;44.512;26.104;2023-04-24T09:25:08;20.60;79.20
46159;DHT22;31888;44.512;26.104;2023-04-24T09:27:35;20.60;78.30
46159;DHT22;31888;44.512;26.104;2023-04-24T09:30:01;20.70;79.60
46159;DHT22;31888;44.512;26.104;2023-04-24T09:32:31;20.90;79.60
46159;DHT22;31888;44.512;26.104;2023-04-24T09:35:10;21.50;77.60
46159;DHT22;31888;44.512;26.104;2023-04-24T09:37:37;21.50;75.50
46159;DHT22;31888;44.512;26.104;2023-04-24T09:40:13;20.90;77.30
46159;DHT22;31888;44.512;26.104;2023-04-24T09:42:38;20.90;72.20
46159;DHT22;31888;44.512;26.104;2023-04-24T09:45:03;20.90;72.00
46159;DHT22;31888;44.512;26.104;2023-04-24T09:47:39;21.00;71.10
46159;DHT22;31888;44.512;26.104;2023-04-24T09:50:14;21.20;75.10
46159;DHT22;31888;44.512;26.104;2023-04-24T09:52:44;21.50;73.00
46159;DHT22;31888;44.512;26.104;2023-04-24T09:55:16;21.50;71.00
46159;DHT22;31888;44.512;26.104;2023-04-24T09:57:49;21.70;69.20
46159;DHT22;31888;44.512;26.104;2023-04-24T10:00:19;21.40;70.50
46159;DHT22;31888;44.512;26.104;2023-04-24T10:02:54;21.50;69.60
46159;DHT22;31888;44.512;26.104;2023-04-24T10:05:27;21.80;70.70
46159;DHT22;31888;44.512;26.104;2023-04-24T10:07:56;22.00;69.10
46159;DHT22;31888;44.512;26.104;2023-04-24T10:10:21;21.90;70.50
46159;DHT22;31888;44.512;26.104;2023-04-24T10:12:47;21.70;66.60
46159;DHT22;31888;44.512;26.104;2023-04-24T10:15:12;21.40;69.50
46159;DHT22;31888;44.512;26.104;2023-04-24T10:17:39;21.30;71.40
46159;DHT22;31888;44.512;26.104;2023-04-24T10:20:08;21.20;70.40
46159;DHT22;31888;44.512;26.104;2023-04-24T10:22:33;21.10;72.60
46159;DHT22;31888;44.512;26.104;2023-04-24T10:24:59;20.90;72.10
46159;DHT22;31888;44.512;26.104;2023-04-24T10:27:27;21.10;72.90
46159;DHT22;31888;44.512;26.104;2023-04-24T10:29:53;21.20;70.50
46159;DHT22;31888;44.512;26.104;2023-04-24T10:32:18;21.30;71.90
46159;DHT22;31888;44.512;26.104;2023-04-24T10:34:43;21.60;71.10
46159;DHT22;31888;44.512;26.104;2023-04-24T10:37:10;21.80;69.80
46159;DHT22;31888;44.512;26.104;2023-04-24T10:39:36;22.00;69.70
46159;DHT22;31888;44.512;26.104;2023-04-24T10:42:14;22.10;68.80
46159;DHT22;31888;44.512;26.104;2023-04-24T10:44:40;22.10;68.20
46159;DHT22;31888;44.512;26.104;2023-04-24T10:47:13;21.90;66.80
46159;DHT22;31888;44.512;26.104;2023-04-24T10:49:38;21.90;68.50
46159;DHT22;31888;44.512;26.104;2023-04-24T10:52:04;21.90;67.50
46159;DHT22;31888;44.512;26.104;2023-04-24T10:54:35;22.00;67.60
46159;DHT22;31888;44.512;26.104;2023-04-24T10:57:26;22.00;67.60
46159;DHT22;31888;44.512;26.104;2023-04-24T11:00:11;21.50;68.00
46159;DHT22;31888;44.512;26.104;2023-04-24T11:02:39;21.80;68.30
46159;DHT22;31888;44.512;26.104;2023-04-24T11:05:07;21.80;67.10
46159;DHT22;31888;44.512;26.104;2023-04-24T11:10:38;21.90;65.40
46159;DHT22;31888;44.512;26.104;2023-04-24T11:13:03;22.00;65.60
46159;DHT22;31888;44.512;26.104;2023-04-24T11:15:27;22.20;65.60
46159;DHT22;31888;44.512;26.104;2023-04-24T11:17:55;22.10;65.40
46159;DHT22;31888;44.512;26.104;2023-04-24T11:20:23;22.00;64.60
46159;DHT22;31888;44.512;26.104;2023-04-24T11:22:52;21.80;65.30
46159;DHT22;31888;44.512;26.104;2023-04-24T11:25:18;21.80;63.80
46159;DHT22;31888;44.512;26.104;2023-04-24T11:27:44;22.10;62.10
46159;DHT22;31888;44.512;26.104;2023-04-24T11:30:10;22.30;62.80
46159;DHT22;31888;44.512;26.104;2023-04-24T11:32:36;22.40;61.30
46159;DHT22;31888;44.512;26.104;2023-04-24T11:35:04;22.40;61.60
46159;DHT22;31888;44.512;26.104;2023-04-24T11:37:35;22.30;61.70
46159;DHT22;31888;44.512;26.104;2023-04-24T11:40:00;22.40;61.20
46159;DHT22;31888;44.512;26.104;2023-04-24T11:42:26;22.40;61.70
46159;DHT22;31888;44.512;26.104;2023-04-24T11:44:54;22.30;61.70
46159;DHT22;31888;44.512;26.104;2023-04-24T11:47:20;22.20;62.00
46159;DHT22;31888;44.512;26.104;2023-04-24T11:49:45;22.20;62.30
46159;DHT22;31888;44.512;26.104;2023-04-24T11:52:09;22.30;62.50
46159;DHT22;31888;44.512;26.104;2023-04-24T11:54:34;22.20;60.80
46159;DHT22;31888;44.512;26.104;2023-04-24T11:57:04;22.20;61.30
46159;DHT22;31888;44.512;26.104;2023-04-24T11:59:29;22.10;59.40
46159;DHT22;31888;44.512;26.104;2023-04-24T12:01:55;22.10;60.50
46159;DHT22;31888;44.512;26.104;2023-04-24T12:04:19;22.20;61.30
46159;DHT22;31888;44.512;26.104;2023-04-24T12:07:00;22.20;60.20
46159;DHT22;31888;44.512;26.104;2023-04-24T12:09:24;22.30;60.80
46159;DHT22;31888;44.512;26.104;2023-04-24T12:11:58;22.40;60.60
46159;DHT22;31888;44.512;26.104;2023-04-24T12:14:23;22.30;60.20
46159;DHT22;31888;44.512;26.104;2023-04-24T12:16:48;22.30;60.20
46159;DHT22;31888;44.512;26.104;2023-04-24T12:19:20;22.20;59.40
46159;DHT22;31888;44.512;26.104;2023-04-24T12:21:59;22.40;58.20
46159;DHT22;31888;44.512;26.104;2023-04-24T12:24:24;22.60;58.20
46159;DHT22;31888;44.512;26.104;2023-04-24T12:26:48;22.80;57.90
46159;DHT22;31888;44.512;26.104;2023-04-24T12:29:19;23.10;58.60
46159;DHT22;31888;44.512;26.104;2023-04-24T12:31:44;23.10;58.50
46159;DHT22;31888;44.512;26.104;2023-04-24T12:34:19;23.10;58.60
46159;DHT22;31888;44.512;26.104;2023-04-24T12:36:44;22.90;57.90
46159;DHT22;31888;44.512;26.104;2023-04-24T12:39:14;22.90;60.40
46159;DHT22;31888;44.512;26.104;2023-04-24T12:41:55;23.10;59.70
46159;DHT22;31888;44.512;26.104;2023-04-24T12:44:28;23.20;58.30
46159;DHT22;31888;44.512;26.104;2023-04-24T12:46:53;23.10;58.50
46159;DHT22;31888;44.512;26.104;2023-04-24T12:49:19;23.00;58.40
46159;DHT22;31888;44.512;26.104;2023-04-24T12:51:44;22.80;59.00
46159;DHT22;31888;44.512;26.104;2023-04-24T12:54:08;22.60;58.30
46159;DHT22;31888;44.512;26.104;2023-04-24T12:56:33;22.70;59.30
46159;DHT22;31888;44.512;26.104;2023-04-24T12:59:02;22.60;60.60
46159;DHT22;31888;44.512;26.104;2023-04-24T13:01:27;22.50;60.80
46159;DHT22;31888;44.512;26.104;2023-04-24T13:03:51;22.50;60.00
46159;DHT22;31888;44.512;26.104;2023-04-24T13:06:17;22.40;59.70
46159;DHT22;31888;44.512;26.104;2023-04-24T13:08:42;22.40;60.90
46159;DHT22;31888;44.512;26.104;2023-04-24T13:11:07;22.30;62.20
46159;DHT22;31888;44.512;26.104;2023-04-24T13:13:32;22.50;60.40
46159;DHT22;31888;44.512;26.104;2023-04-24T13:15:57;22.60;59.40
46159;DHT22;31888;44.512;26.104;2023-04-24T13:18:22;22.60;58.90
46159;DHT22;31888;44.512;26.104;2023-04-24T13:20:46;22.80;59.20
46159;DHT22;31888;44.512;26.104;2023-04-24T13:23:12;22.90;58.90
46159;DHT22;31888;44.512;26.104;2023-04-24T13:25:37;22.90;58.20
46159;DHT22;31888;44.512;26.104;2023-04-24T13:28:02;22.80;59.70
46159;DHT22;31888;44.512;26.104;2023-04-24T13:30:27;22.70;61.10
46159;DHT22;31888;44.512;26.104;2023-04-24T13:32:51;22.40;60.40
46159;DHT22;31888;44.512;26.104;2023-04-24T13:35:16;22.20;61.10
46159;DHT22;31888;44.512;26.104;2023-04-24T13:37:41;22.10;61.50
46159;DHT22;31888;44.512;26.104;2023-04-24T13:40:08;21.90;63.20
46159;DHT22;31888;44.512;26.104;2023-04-24T13:42:33;21.90;64.90
46159;DHT22;31888;44.512;26.104;2023-04-24T13:44:58;21.90;62.80
46159;DHT22;31888;44.512;26.104;2023-04-24T13:47:33;22.10;63.90
46159;DHT22;31888;44.512;26.104;2023-04-24T13:49:58;22.10;63.40
46159;DHT22;31888;44.512;26.104;2023-04-24T13:52:23;22.20;62.20
46159;DHT22;31888;44.512;26.104;2023-04-24T13:54:47;22.20;62.30
46159;DHT22;31888;44.512;26.104;2023-04-24T13:57:16;22.20;62.30
46159;DHT22;31888;44.512;26.104;2023-04-24T13:59:42;22.30;62.90
46159;DHT22;31888;44.512;26.104;2023-04-24T14:02:08;22.30;63.10
46159;DHT22;31888;44.512;26.104;2023-04-24T14:04:33;22.20;64.20
46159;DHT22;31888;44.512;26.104;2023-04-24T14:06:58;22.10;64.30
46159;DHT22;31888;44.512;26.104;2023-04-24T14:09:22;22.10;63.80
46159;DHT22;31888;44.512;26.104;2023-04-24T14:11:47;22.20;63.60
46159;DHT22;31888;44.512;26.104;2023-04-24T14:14:13;22.30;63.40
46159;DHT22;31888;44.512;26.104;2023-04-24T14:16:38;22.40;63.30
46159;DHT22;31888;44.512;26.104;2023-04-24T14:19:03;22.50;63.30
46159;DHT22;31888;44.512;26.104;2023-04-24T14:21:28;22.50;65.90
46159;DHT22;31888;44.512;26.104;2023-04-24T14:23:53;22.40;64.10
46159;DHT22;31888;44.512;26.104;2023-04-24T14:26:17;22.50;64.40
46159;DHT22;31888;44.512;26.104;2023-04-24T14:28:42;22.50;65.00
46159;DHT22;31888;44.512;26.104;2023-04-24T14:31:08;22.50;64.80
46159;DHT22;31888;44.512;26.104;2023-04-24T14:33:33;22.60;64.10
46159;DHT22;31888;44.512;26.104;2023-04-24T14:35:58;22.60;63.60
46159;DHT22;31888;44.512;26.104;2023-04-24T14:38:22;22.60;64.10
46159;DHT22;31888;44.512;26.104;2023-04-24T14:40:47;22.70;63.50
46159;DHT22;31888;44.512;26.104;2023-04-24T14:43:14;22.80;62.90
46159;DHT22;31888;44.512;26.104;2023-04-24T14:45:39;22.90;62.60
46159;DHT22;31888;44.512;26.104;2023-04-24T14:48:05;22.70;64.20
46159;DHT22;31888;44.512;26.104;2023-04-24T14:50:31;22.60;64.70
46159;DHT22;31888;44.512;26.104;2023-04-24T14:52:56;22.60;63.60
46159;DHT22;31888;44.512;26.104;2023-04-24T14:55:21;22.70;64.10
46159;DHT22;31888;44.512;26.104;2023-04-24T14:57:46;22.80;63.80
46159;DHT22;31888;44.512;26.104;2023-04-24T15:00:12;22.90;64.90
46159;DHT22;31888;44.512;26.104;2023-04-24T15:02:37;23.00;64.80
46159;DHT22;31888;44.512;26.104;2023-04-24T15:05:07;23.00;63.60
46159;DHT22;31888;44.512;26.104;2023-04-24T15:07:33;23.00;66.40
46159;DHT22;31888;44.512;26.104;2023-04-24T15:09:58;22.90;65.30
46159;DHT22;31888;44.512;26.104;2023-04-24T15:12:27;22.90;64.00
46159;DHT22;31888;44.512;26.104;2023-04-24T15:14:52;22.70;66.20
46159;DHT22;31888;44.512;26.104;2023-04-24T15:17:16;22.80;65.40
46159;DHT22;31888;44.512;26.104;2023-04-24T15:19:41;22.80;64.10